sensor_id;sensor_type;location;lat;lon;timestamp;P1;durP1;ratioP1;P2;durP2;ratioP2
23252;SDS011;11795;47.054;15.408;2022-08-19T00:00:00;3.8;;;2.2;;
23252;SDS011;11795;47.054;15.408;2022-08-19T00:02:00;6.0;;;2.4;;
23252;SDS011;11795;47.054;15.408;2022-08-19T00:04:01;6.0;;;2.4;;
23252;SDS011;11795;47.054;15.408;2022-08-19T00:06:00;6.0;;;2.4;;
23252;SDS011;11795;47.054;15.408;2022-08-19T00:08:00;7.3;;;2.9;;
23252;SDS011;11795;47.054;15.408;2022-08-19T00:10:00;7.3;;;2.9;;
23252;SDS011;11795;47.054;15.408;2022-08-19T00:12:00;5.9;;;2.7;;
23252;SDS011;11795;47.054;15.408;2022-08-19T00:14:00;5.9;;;2.7;;
23252;SDS011;11795;47.054;15.408;2022-08-19T00:16:00;5.9;;;2.7;;
23252;SDS011;11795;47.054;15.408;2022-08-19T00:18:00;6.2;;;2.7;;
23252;SDS011;11795;47.054;15.408;2022-08-19T00:20:00;6.2;;;2.7;;
23252;SDS011;11795;47.054;15.408;2022-08-19T00:22:00;8.1;;;2.6;;
23252;SDS011;11795;47.054;15.408;2022-08-19T00:24:01;8.1;;;2.6;;
23252;SDS011;11795;47.054;15.408;2022-08-19T00:26:00;8.1;;;2.6;;
23252;SDS011;11795;47.054;15.408;2022-08-19T00:28:00;5.8;;;2.6;;
23252;SDS011;11795;47.054;15.408;2022-08-19T00:30:02;5.8;;;2.6;;
23252;SDS011;11795;47.054;15.408;2022-08-19T00:32:00;6.9;;;3.1;;
23252;SDS011;11795;47.054;15.408;2022-08-19T00:34:00;6.9;;;3.1;;
23252;SDS011;11795;47.054;15.408;2022-08-19T00:36:00;6.9;;;3.1;;
23252;SDS011;11795;47.054;15.408;2022-08-19T00:38:00;7.3;;;3.0;;
23252;SDS011;11795;47.054;15.408;2022-08-19T00:40:00;7.3;;;3.0;;
23252;SDS011;11795;47.054;15.408;2022-08-19T00:42:00;7.4;;;2.9;;
23252;SDS011;11795;47.054;15.408;2022-08-19T00:44:01;7.4;;;2.9;;
23252;SDS011;11795;47.054;15.408;2022-08-19T00:46:01;7.4;;;2.9;;
23252;SDS011;11795;47.054;15.408;2022-08-19T00:48:03;8.0;;;2.9;;
23252;SDS011;11795;47.054;15.408;2022-08-19T00:50:00;8.0;;;2.9;;
23252;SDS011;11795;47.054;15.408;2022-08-19T00:52:01;7.2;;;2.6;;
23252;SDS011;11795;47.054;15.408;2022-08-19T00:54:01;7.2;;;2.6;;
23252;SDS011;11795;47.054;15.408;2022-08-19T00:56:00;7.2;;;2.6;;
23252;SDS011;11795;47.054;15.408;2022-08-19T00:58:02;8.7;;;2.5;;
23252;SDS011;11795;47.054;15.408;2022-08-19T01:00:05;8.7;;;2.5;;
23252;SDS011;11795;47.054;15.408;2022-08-19T01:02:00;6.1;;;2.6;;
23252;SDS011;11795;47.054;15.408;2022-08-19T01:04:00;6.1;;;2.6;;
23252;SDS011;11795;47.054;15.408;2022-08-19T01:06:00;6.1;;;2.6;;
23252;SDS011;11795;47.054;15.408;2022-08-19T01:08:00;5.7;;;2.5;;
23252;SDS011;11795;47.054;15.408;2022-08-19T01:10:00;5.7;;;2.5;;
23252;SDS011;11795;47.054;15.408;2022-08-19T01:12:00;6.7;;;2.4;;
23252;SDS011;11795;47.054;15.408;2022-08-19T01:14:00;6.7;;;2.4;;
23252;SDS011;11795;47.054;15.408;2022-08-19T01:16:00;6.7;;;2.4;;
23252;SDS011;11795;47.054;15.408;2022-08-19T01:18:01;4.2;;;2.3;;
23252;SDS011;11795;47.054;15.408;2022-08-19T01:20:00;4.2;;;2.3;;
23252;SDS011;11795;47.054;15.408;2022-08-19T01:22:01;6.0;;;2.5;;
23252;SDS011;11795;47.054;15.408;2022-08-19T01:24:00;6.0;;;2.5;;
23252;SDS011;11795;47.054;15.408;2022-08-19T01:26:00;6.0;;;2.5;;
23252;SDS011;11795;47.054;15.408;2022-08-19T01:28:00;7.0;;;2.5;;
23252;SDS011;11795;47.054;15.408;2022-08-19T01:30:00;7.0;;;2.5;;
23252;SDS011;11795;47.054;15.408;2022-08-19T01:32:00;7.0;;;2.7;;
23252;SDS011;11795;47.054;15.408;2022-08-19T01:34:00;7.0;;;2.7;;
23252;SDS011;11795;47.054;15.408;2022-08-19T01:36:04;7.0;;;2.7;;
23252;SDS011;11795;47.054;15.408;2022-08-19T01:38:02;7.4;;;2.7;;
23252;SDS011;11795;47.054;15.408;2022-08-19T01:40:00;7.4;;;2.7;;
23252;SDS011;11795;47.054;15.408;2022-08-19T01:42:03;5.5;;;2.3;;
23252;SDS011;11795;47.054;15.408;2022-08-19T01:44:01;5.5;;;2.3;;
23252;SDS011;11795;47.054;15.408;2022-08-19T01:46:00;5.5;;;2.3;;
23252;SDS011;11795;47.054;15.408;2022-08-19T01:48:00;6.5;;;2.5;;
23252;SDS011;11795;47.054;15.408;2022-08-19T01:50:00;6.5;;;2.5;;
23252;SDS011;11795;47.054;15.408;2022-08-19T01:52:00;7.0;;;2.7;;
23252;SDS011;11795;47.054;15.408;2022-08-19T01:54:00;7.0;;;2.7;;
23252;SDS011;11795;47.054;15.408;2022-08-19T01:56:00;7.0;;;2.7;;
23252;SDS011;11795;47.054;15.408;2022-08-19T01:58:00;4.4;;;2.4;;
23252;SDS011;11795;47.054;15.408;2022-08-19T02:00:04;4.4;;;2.4;;
23252;SDS011;11795;47.054;15.408;2022-08-19T02:02:00;5.7;;;2.7;;
23252;SDS011;11795;47.054;15.408;2022-08-19T02:04:00;5.7;;;2.7;;
23252;SDS011;11795;47.054;15.408;2022-08-19T02:06:00;5.7;;;2.7;;
23252;SDS011;11795;47.054;15.408;2022-08-19T02:08:00;5.6;;;2.9;;
23252;SDS011;11795;47.054;15.408;2022-08-19T02:10:00;5.6;;;2.9;;
23252;SDS011;11795;47.054;15.408;2022-08-19T02:12:00;6.4;;;2.8;;
23252;SDS011;11795;47.054;15.408;2022-08-19T02:14:00;6.4;;;2.8;;
23252;SDS011;11795;47.054;15.408;2022-08-19T02:16:00;6.4;;;2.8;;
23252;SDS011;11795;47.054;15.408;2022-08-19T02:18:00;5.8;;;2.9;;
23252;SDS011;11795;47.054;15.408;2022-08-19T02:20:00;5.8;;;2.9;;
23252;SDS011;11795;47.054;15.408;2022-08-19T02:22:00;6.4;;;3.0;;
23252;SDS011;11795;47.054;15.408;2022-08-19T02:24:00;6.4;;;3.0;;
23252;SDS011;11795;47.054;15.408;2022-08-19T02:26:00;6.4;;;3.0;;
23252;SDS011;11795;47.054;15.408;2022-08-19T02:28:00;8.8;;;3.0;;
23252;SDS011;11795;47.054;15.408;2022-08-19T02:30:00;8.8;;;3.0;;
23252;SDS011;11795;47.054;15.408;2022-08-19T02:32:00;7.5;;;3.2;;
23252;SDS011;11795;47.054;15.408;2022-08-19T02:34:00;7.5;;;3.2;;
23252;SDS011;11795;47.054;15.408;2022-08-19T02:36:02;7.5;;;3.2;;
23252;SDS011;11795;47.054;15.408;2022-08-19T02:38:10;6.7;;;3.1;;
23252;SDS011;11795;47.054;15.408;2022-08-19T02:40:00;6.7;;;3.1;;
23252;SDS011;11795;47.054;15.408;2022-08-19T02:42:02;7.0;;;2.8;;
23252;SDS011;11795;47.054;15.408;2022-08-19T02:44:01;7.0;;;2.8;;
23252;SDS011;11795;47.054;15.408;2022-08-19T02:46:00;7.0;;;2.8;;
23252;SDS011;11795;47.054;15.408;2022-08-19T02:48:00;9.0;;;3.7;;
23252;SDS011;11795;47.054;15.408;2022-08-19T02:50:00;9.0;;;3.7;;
23252;SDS011;11795;47.054;15.408;2022-08-19T02:52:00;7.7;;;4.0;;
23252;SDS011;11795;47.054;15.408;2022-08-19T02:54:00;7.7;;;4.0;;
23252;SDS011;11795;47.054;15.408;2022-08-19T02:56:00;7.7;;;4.0;;
23252;SDS011;11795;47.054;15.408;2022-08-19T02:58:00;9.8;;;3.6;;
23252;SDS011;11795;47.054;15.408;2022-08-19T03:00:03;9.8;;;3.6;;
23252;SDS011;11795;47.054;15.408;2022-08-19T03:02:00;6.8;;;3.1;;
23252;SDS011;11795;47.054;15.408;2022-08-19T03:04:01;6.8;;;3.1;;
23252;SDS011;11795;47.054;15.408;2022-08-19T03:06:08;6.8;;;3.1;;
23252;SDS011;11795;47.054;15.408;2022-08-19T03:08:00;8.3;;;3.7;;
23252;SDS011;11795;47.054;15.408;2022-08-19T03:10:00;8.3;;;3.7;;
23252;SDS011;11795;47.054;15.408;2022-08-19T03:12:00;7.3;;;3.3;;
23252;SDS011;11795;47.054;15.408;2022-08-19T03:14:00;7.3;;;3.3;;
23252;SDS011;11795;47.054;15.408;2022-08-19T03:16:00;7.3;;;3.3;;
23252;SDS011;11795;47.054;15.408;2022-08-19T03:18:00;9.9;;;3.6;;
23252;SDS011;11795;47.054;15.408;2022-08-19T03:20:00;9.9;;;3.6;;
23252;SDS011;11795;47.054;15.408;2022-08-19T03:22:00;8.7;;;3.4;;
23252;SDS011;11795;47.054;15.408;2022-08-19T03:24:01;8.7;;;3.4;;
23252;SDS011;11795;47.054;15.408;2022-08-19T03:26:02;8.7;;;3.4;;
23252;SDS011;11795;47.054;15.408;2022-08-19T03:28:00;5.4;;;2.8;;
23252;SDS011;11795;47.054;15.408;2022-08-19T03:30:00;5.4;;;2.8;;
23252;SDS011;11795;47.054;15.408;2022-08-19T03:32:02;6.3;;;2.9;;
23252;SDS011;11795;47.054;15.408;2022-08-19T03:34:00;6.3;;;2.9;;
23252;SDS011;11795;47.054;15.408;2022-08-19T03:36:01;6.3;;;2.9;;
23252;SDS011;11795;47.054;15.408;2022-08-19T03:38:00;7.5;;;3.1;;
23252;SDS011;11795;47.054;15.408;2022-08-19T03:40:02;7.5;;;3.1;;
23252;SDS011;11795;47.054;15.408;2022-08-19T03:42:02;6.5;;;2.9;;
23252;SDS011;11795;47.054;15.408;2022-08-19T03:44:00;6.5;;;2.9;;
23252;SDS011;11795;47.054;15.408;2022-08-19T03:46:00;6.5;;;2.9;;
23252;SDS011;11795;47.054;15.408;2022-08-19T03:48:00;6.5;;;2.8;;
23252;SDS011;11795;47.054;15.408;2022-08-19T03:50:00;6.5;;;2.8;;
23252;SDS011;11795;47.054;15.408;2022-08-19T03:52:00;8.1;;;3.4;;
23252;SDS011;11795;47.054;15.408;2022-08-19T03:54:01;8.1;;;3.4;;
23252;SDS011;11795;47.054;15.408;2022-08-19T03:56:00;8.1;;;3.4;;
23252;SDS011;11795;47.054;15.408;2022-08-19T03:58:00;6.5;;;3.4;;
23252;SDS011;11795;47.054;15.408;2022-08-19T04:00:00;6.5;;;3.4;;
23252;SDS011;11795;47.054;15.408;2022-08-19T04:02:01;7.6;;;3.7;;
23252;SDS011;11795;47.054;15.408;2022-08-19T04:04:00;7.6;;;3.7;;
23252;SDS011;11795;47.054;15.408;2022-08-19T04:06:08;7.6;;;3.7;;
23252;SDS011;11795;47.054;15.408;2022-08-19T04:08:00;8.3;;;3.7;;
23252;SDS011;11795;47.054;15.408;2022-08-19T04:10:00;8.3;;;3.7;;
23252;SDS011;11795;47.054;15.408;2022-08-19T04:12:00;7.9;;;4.2;;
23252;SDS011;11795;47.054;15.408;2022-08-19T04:14:00;7.9;;;4.2;;
23252;SDS011;11795;47.054;15.408;2022-08-19T04:16:00;7.9;;;4.2;;
23252;SDS011;11795;47.054;15.408;2022-08-19T04:18:00;7.8;;;3.5;;
23252;SDS011;11795;47.054;15.408;2022-08-19T04:20:00;7.8;;;3.5;;
23252;SDS011;11795;47.054;15.408;2022-08-19T04:22:00;7.8;;;3.5;;
23252;SDS011;11795;47.054;15.408;2022-08-19T04:24:00;6.3;;;2.8;;
23252;SDS011;11795;47.054;15.408;2022-08-19T04:26:00;6.3;;;2.8;;
23252;SDS011;11795;47.054;15.408;2022-08-19T04:28:00;3.0;;;1.7;;
23252;SDS011;11795;47.054;15.408;2022-08-19T04:30:00;3.0;;;1.7;;
23252;SDS011;11795;47.054;15.408;2022-08-19T04:32:00;3.0;;;1.7;;
23252;SDS011;11795;47.054;15.408;2022-08-19T04:34:00;3.7;;;1.4;;
23252;SDS011;11795;47.054;15.408;2022-08-19T04:36:00;3.7;;;1.4;;
23252;SDS011;11795;47.054;15.408;2022-08-19T04:38:00;2.9;;;1.2;;
23252;SDS011;11795;47.054;15.408;2022-08-19T04:40:10;2.9;;;1.2;;
23252;SDS011;11795;47.054;15.408;2022-08-19T04:42:10;2.9;;;1.2;;
23252;SDS011;11795;47.054;15.408;2022-08-19T04:44:00;2.9;;;1.2;;
23252;SDS011;11795;47.054;15.408;2022-08-19T04:46:03;2.9;;;1.2;;
23252;SDS011;11795;47.054;15.408;2022-08-19T04:48:01;3.5;;;1.1;;
23252;SDS011;11795;47.054;15.408;2022-08-19T04:50:00;3.5;;;1.1;;
23252;SDS011;11795;47.054;15.408;2022-08-19T04:52:00;3.5;;;1.1;;
23252;SDS011;11795;47.054;15.408;2022-08-19T04:54:00;4.4;;;2.4;;
23252;SDS011;11795;47.054;15.408;2022-08-19T04:56:03;4.4;;;2.4;;
23252;SDS011;11795;47.054;15.408;2022-08-19T04:58:00;5.3;;;2.9;;
23252;SDS011;11795;47.054;15.408;2022-08-19T05:00:00;5.3;;;2.9;;
23252;SDS011;11795;47.054;15.408;2022-08-19T05:02:00;5.3;;;2.9;;
23252;SDS011;11795;47.054;15.408;2022-08-19T05:04:00;8.3;;;3.2;;
23252;SDS011;11795;47.054;15.408;2022-08-19T05:06:04;8.3;;;3.2;;
23252;SDS011;11795;47.054;15.408;2022-08-19T05:08:00;6.1;;;2.8;;
23252;SDS011;11795;47.054;15.408;2022-08-19T05:10:00;6.1;;;2.8;;
23252;SDS011;11795;47.054;15.408;2022-08-19T05:12:00;6.1;;;2.8;;
23252;SDS011;11795;47.054;15.408;2022-08-19T05:14:00;6.2;;;2.7;;
23252;SDS011;11795;47.054;15.408;2022-08-19T05:16:00;6.2;;;2.7;;
23252;SDS011;11795;47.054;15.408;2022-08-19T05:18:10;5.8;;;2.9;;
23252;SDS011;11795;47.054;15.408;2022-08-19T05:20:10;5.8;;;2.9;;
23252;SDS011;11795;47.054;15.408;2022-08-19T05:22:10;5.8;;;2.9;;
23252;SDS011;11795;47.054;15.408;2022-08-19T05:24:00;5.9;;;2.8;;
23252;SDS011;11795;47.054;15.408;2022-08-19T05:26:00;5.9;;;2.8;;
23252;SDS011;11795;47.054;15.408;2022-08-19T05:28:00;5.7;;;2.5;;
23252;SDS011;11795;47.054;15.408;2022-08-19T05:30:00;5.7;;;2.5;;
23252;SDS011;11795;47.054;15.408;2022-08-19T05:32:00;5.7;;;2.5;;
23252;SDS011;11795;47.054;15.408;2022-08-19T05:34:00;5.1;;;2.0;;
23252;SDS011;11795;47.054;15.408;2022-08-19T05:36:00;5.1;;;2.0;;
23252;SDS011;11795;47.054;15.408;2022-08-19T05:38:00;4.1;;;2.0;;
23252;SDS011;11795;47.054;15.408;2022-08-19T05:40:00;4.1;;;2.0;;
23252;SDS011;11795;47.054;15.408;2022-08-19T05:42:00;4.1;;;2.0;;
23252;SDS011;11795;47.054;15.408;2022-08-19T05:44:01;4.8;;;2.0;;
23252;SDS011;11795;47.054;15.408;2022-08-19T05:46:00;4.8;;;2.0;;
23252;SDS011;11795;47.054;15.408;2022-08-19T05:48:00;6.3;;;3.1;;
23252;SDS011;11795;47.054;15.408;2022-08-19T05:50:02;6.3;;;3.1;;
23252;SDS011;11795;47.054;15.408;2022-08-19T05:52:01;6.3;;;3.1;;
23252;SDS011;11795;47.054;15.408;2022-08-19T05:54:00;8.8;;;3.7;;
23252;SDS011;11795;47.054;15.408;2022-08-19T05:56:03;8.8;;;3.7;;
23252;SDS011;11795;47.054;15.408;2022-08-19T05:58:01;7.6;;;3.5;;
23252;SDS011;11795;47.054;15.408;2022-08-19T06:00:02;7.6;;;3.5;;
23252;SDS011;11795;47.054;15.408;2022-08-19T06:02:01;7.6;;;3.5;;
23252;SDS011;11795;47.054;15.408;2022-08-19T06:04:00;8.9;;;3.9;;
23252;SDS011;11795;47.054;15.408;2022-08-19T06:06:00;8.9;;;3.9;;
23252;SDS011;11795;47.054;15.408;2022-08-19T06:08:00;7.4;;;3.6;;
23252;SDS011;11795;47.054;15.408;2022-08-19T06:10:00;7.4;;;3.6;;
23252;SDS011;11795;47.054;15.408;2022-08-19T06:12:01;7.4;;;3.6;;
23252;SDS011;11795;47.054;15.408;2022-08-19T06:14:00;4.9;;;3.0;;
23252;SDS011;11795;47.054;15.408;2022-08-19T06:16:00;4.9;;;3.0;;
23252;SDS011;11795;47.054;15.408;2022-08-19T06:18:01;5.7;;;3.2;;
23252;SDS011;11795;47.054;15.408;2022-08-19T06:20:00;5.7;;;3.2;;
23252;SDS011;11795;47.054;15.408;2022-08-19T06:22:00;5.7;;;3.2;;
23252;SDS011;11795;47.054;15.408;2022-08-19T06:24:00;5.1;;;2.4;;
23252;SDS011;11795;47.054;15.408;2022-08-19T06:26:00;5.1;;;2.4;;
23252;SDS011;11795;47.054;15.408;2022-08-19T06:28:00;6.8;;;3.0;;
23252;SDS011;11795;47.054;15.408;2022-08-19T06:30:00;6.8;;;3.0;;
23252;SDS011;11795;47.054;15.408;2022-08-19T06:32:01;6.8;;;3.0;;
23252;SDS011;11795;47.054;15.408;2022-08-19T06:34:02;4.9;;;2.7;;
23252;SDS011;11795;47.054;15.408;2022-08-19T06:36:00;4.9;;;2.7;;
23252;SDS011;11795;47.054;15.408;2022-08-19T06:38:00;4.7;;;2.6;;
23252;SDS011;11795;47.054;15.408;2022-08-19T06:40:00;4.7;;;2.6;;
23252;SDS011;11795;47.054;15.408;2022-08-19T06:42:01;4.7;;;2.6;;
23252;SDS011;11795;47.054;15.408;2022-08-19T06:44:00;3.9;;;2.4;;
23252;SDS011;11795;47.054;15.408;2022-08-19T06:46:01;3.9;;;2.4;;
23252;SDS011;11795;47.054;15.408;2022-08-19T06:48:00;4.8;;;2.5;;
23252;SDS011;11795;47.054;15.408;2022-08-19T06:50:02;4.8;;;2.5;;
23252;SDS011;11795;47.054;15.408;2022-08-19T06:52:00;4.8;;;2.5;;
23252;SDS011;11795;47.054;15.408;2022-08-19T06:54:01;4.5;;;2.4;;
23252;SDS011;11795;47.054;15.408;2022-08-19T06:56:02;4.5;;;2.4;;
23252;SDS011;11795;47.054;15.408;2022-08-19T06:58:01;4.9;;;2.1;;
23252;SDS011;11795;47.054;15.408;2022-08-19T07:00:00;4.9;;;2.1;;
23252;SDS011;11795;47.054;15.408;2022-08-19T07:02:01;4.9;;;2.1;;
23252;SDS011;11795;47.054;15.408;2022-08-19T07:04:02;5.9;;;2.5;;
23252;SDS011;11795;47.054;15.408;2022-08-19T07:06:02;5.9;;;2.5;;
23252;SDS011;11795;47.054;15.408;2022-08-19T07:08:00;4.3;;;2.3;;
23252;SDS011;11795;47.054;15.408;2022-08-19T07:10:00;4.3;;;2.3;;
23252;SDS011;11795;47.054;15.408;2022-08-19T07:12:01;4.3;;;2.3;;
23252;SDS011;11795;47.054;15.408;2022-08-19T07:14:00;7.6;;;2.9;;
23252;SDS011;11795;47.054;15.408;2022-08-19T07:16:02;7.6;;;2.9;;
23252;SDS011;11795;47.054;15.408;2022-08-19T07:18:00;4.8;;;2.6;;
23252;SDS011;11795;47.054;15.408;2022-08-19T07:20:00;4.8;;;2.6;;
23252;SDS011;11795;47.054;15.408;2022-08-19T07:22:01;4.8;;;2.6;;
23252;SDS011;11795;47.054;15.408;2022-08-19T07:24:00;5.9;;;2.6;;
23252;SDS011;11795;47.054;15.408;2022-08-19T07:26:04;5.9;;;2.6;;
23252;SDS011;11795;47.054;15.408;2022-08-19T07:28:00;4.5;;;2.3;;
23252;SDS011;11795;47.054;15.408;2022-08-19T07:30:00;4.5;;;2.3;;
23252;SDS011;11795;47.054;15.408;2022-08-19T07:32:01;4.5;;;2.3;;
23252;SDS011;11795;47.054;15.408;2022-08-19T07:34:00;4.7;;;2.3;;
23252;SDS011;11795;47.054;15.408;2022-08-19T07:36:00;4.7;;;2.3;;
23252;SDS011;11795;47.054;15.408;2022-08-19T07:38:02;2.0;;;1.2;;
23252;SDS011;11795;47.054;15.408;2022-08-19T07:40:00;2.0;;;1.2;;
23252;SDS011;11795;47.054;15.408;2022-08-19T07:42:01;2.0;;;1.2;;
23252;SDS011;11795;47.054;15.408;2022-08-19T07:44:04;2.3;;;1.1;;
23252;SDS011;11795;47.054;15.408;2022-08-19T07:46:00;2.3;;;1.1;;
23252;SDS011;11795;47.054;15.408;2022-08-19T07:48:01;2.4;;;0.9;;
23252;SDS011;11795;47.054;15.408;2022-08-19T07:50:00;2.4;;;0.9;;
23252;SDS011;11795;47.054;15.408;2022-08-19T07:52:03;2.4;;;0.9;;
23252;SDS011;11795;47.054;15.408;2022-08-19T07:54:00;2.0;;;0.8;;
23252;SDS011;11795;47.054;15.408;2022-08-19T07:56:03;2.0;;;0.8;;
23252;SDS011;11795;47.054;15.408;2022-08-19T07:58:00;2.0;;;0.9;;
23252;SDS011;11795;47.054;15.408;2022-08-19T08:00:00;2.0;;;0.9;;
23252;SDS011;11795;47.054;15.408;2022-08-19T08:02:00;2.0;;;0.9;;
23252;SDS011;11795;47.054;15.408;2022-08-19T08:04:10;2.1;;;0.9;;
23252;SDS011;11795;47.054;15.408;2022-08-19T08:06:10;2.1;;;0.9;;
23252;SDS011;11795;47.054;15.408;2022-08-19T08:08:10;1.6;;;0.8;;
23252;SDS011;11795;47.054;15.408;2022-08-19T08:10:00;1.6;;;0.8;;
23252;SDS011;11795;47.054;15.408;2022-08-19T08:12:01;1.6;;;0.8;;
23252;SDS011;11795;47.054;15.408;2022-08-19T08:14:00;2.6;;;1.0;;
23252;SDS011;11795;47.054;15.408;2022-08-19T08:16:00;2.6;;;1.0;;
23252;SDS011;11795;47.054;15.408;2022-08-19T08:18:00;3.7;;;1.2;;
23252;SDS011;11795;47.054;15.408;2022-08-19T08:20:00;3.7;;;1.2;;
23252;SDS011;11795;47.054;15.408;2022-08-19T08:22:00;3.7;;;1.2;;
23252;SDS011;11795;47.054;15.408;2022-08-19T08:24:00;3.4;;;1.1;;
23252;SDS011;11795;47.054;15.408;2022-08-19T08:26:02;3.4;;;1.1;;
23252;SDS011;11795;47.054;15.408;2022-08-19T08:28:00;3.4;;;1.1;;
23252;SDS011;11795;47.054;15.408;2022-08-19T08:30:00;3.2;;;1.4;;
23252;SDS011;11795;47.054;15.408;2022-08-19T08:32:00;3.2;;;1.4;;
23252;SDS011;11795;47.054;15.408;2022-08-19T08:34:00;3.3;;;2.1;;
23252;SDS011;11795;47.054;15.408;2022-08-19T08:36:00;3.3;;;2.1;;
23252;SDS011;11795;47.054;15.408;2022-08-19T08:38:02;3.3;;;2.1;;
23252;SDS011;11795;47.054;15.408;2022-08-19T08:40:02;5.3;;;2.0;;
23252;SDS011;11795;47.054;15.408;2022-08-19T08:42:01;5.3;;;2.0;;
23252;SDS011;11795;47.054;15.408;2022-08-19T08:44:01;2.6;;;1.1;;
23252;SDS011;11795;47.054;15.408;2022-08-19T08:46:01;2.6;;;1.1;;
23252;SDS011;11795;47.054;15.408;2022-08-19T08:48:01;2.6;;;1.1;;
23252;SDS011;11795;47.054;15.408;2022-08-19T08:50:01;1.7;;;1.0;;
23252;SDS011;11795;47.054;15.408;2022-08-19T08:52:02;1.7;;;1.0;;
23252;SDS011;11795;47.054;15.408;2022-08-19T08:54:00;3.3;;;1.5;;
23252;SDS011;11795;47.054;15.408;2022-08-19T08:56:00;3.3;;;1.5;;
23252;SDS011;11795;47.054;15.408;2022-08-19T08:58:01;3.3;;;1.5;;
23252;SDS011;11795;47.054;15.408;2022-08-19T09:00:00;2.7;;;1.2;;
23252;SDS011;11795;47.054;15.408;2022-08-19T09:02:00;2.7;;;1.2;;
23252;SDS011;11795;47.054;15.408;2022-08-19T09:04:00;2.4;;;1.0;;
23252;SDS011;11795;47.054;15.408;2022-08-19T09:06:02;2.4;;;1.0;;
23252;SDS011;11795;47.054;15.408;2022-08-19T09:08:00;2.4;;;1.0;;
23252;SDS011;11795;47.054;15.408;2022-08-19T09:10:02;2.1;;;0.8;;
23252;SDS011;11795;47.054;15.408;2022-08-19T09:12:04;2.1;;;0.8;;
23252;SDS011;11795;47.054;15.408;2022-08-19T09:14:04;4.3;;;1.4;;
23252;SDS011;11795;47.054;15.408;2022-08-19T09:16:02;4.3;;;1.4;;
23252;SDS011;11795;47.054;15.408;2022-08-19T09:18:01;4.3;;;1.4;;
23252;SDS011;11795;47.054;15.408;2022-08-19T09:20:12;3.8;;;1.9;;
23252;SDS011;11795;47.054;15.408;2022-08-19T09:22:00;3.8;;;1.9;;
23252;SDS011;11795;47.054;15.408;2022-08-19T09:24:00;4.7;;;1.8;;
23252;SDS011;11795;47.054;15.408;2022-08-19T09:26:00;4.7;;;1.8;;
23252;SDS011;11795;47.054;15.408;2022-08-19T09:28:02;4.7;;;1.8;;
23252;SDS011;11795;47.054;15.408;2022-08-19T09:30:00;4.1;;;1.5;;
23252;SDS011;11795;47.054;15.408;2022-08-19T09:32:00;4.1;;;1.5;;
23252;SDS011;11795;47.054;15.408;2022-08-19T09:34:04;2.6;;;1.2;;
23252;SDS011;11795;47.054;15.408;2022-08-19T09:36:04;2.6;;;1.2;;
23252;SDS011;11795;47.054;15.408;2022-08-19T09:38:00;2.6;;;1.2;;
23252;SDS011;11795;47.054;15.408;2022-08-19T09:40:00;3.8;;;1.5;;
23252;SDS011;11795;47.054;15.408;2022-08-19T09:42:00;3.8;;;1.5;;
23252;SDS011;11795;47.054;15.408;2022-08-19T09:44:00;2.3;;;1.2;;
23252;SDS011;11795;47.054;15.408;2022-08-19T09:46:00;2.3;;;1.2;;
23252;SDS011;11795;47.054;15.408;2022-08-19T09:48:00;2.3;;;1.2;;
23252;SDS011;11795;47.054;15.408;2022-08-19T09:50:00;2.6;;;1.6;;
23252;SDS011;11795;47.054;15.408;2022-08-19T09:52:00;2.6;;;1.6;;
23252;SDS011;11795;47.054;15.408;2022-08-19T09:54:01;3.9;;;1.7;;
23252;SDS011;11795;47.054;15.408;2022-08-19T09:56:00;3.9;;;1.7;;
23252;SDS011;11795;47.054;15.408;2022-08-19T09:58:00;3.9;;;1.7;;
23252;SDS011;11795;47.054;15.408;2022-08-19T10:00:00;3.7;;;1.9;;
23252;SDS011;11795;47.054;15.408;2022-08-19T10:02:00;3.7;;;1.9;;
23252;SDS011;11795;47.054;15.408;2022-08-19T10:04:00;4.3;;;2.3;;
23252;SDS011;11795;47.054;15.408;2022-08-19T10:06:01;4.3;;;2.3;;
23252;SDS011;11795;47.054;15.408;2022-08-19T10:08:01;4.3;;;2.3;;
23252;SDS011;11795;47.054;15.408;2022-08-19T10:10:00;5.4;;;2.5;;
23252;SDS011;11795;47.054;15.408;2022-08-19T10:12:01;5.4;;;2.5;;
23252;SDS011;11795;47.054;15.408;2022-08-19T10:14:00;7.3;;;2.4;;
23252;SDS011;11795;47.054;15.408;2022-08-19T10:16:02;7.3;;;2.4;;
23252;SDS011;11795;47.054;15.408;2022-08-19T10:18:00;7.3;;;2.4;;
23252;SDS011;11795;47.054;15.408;2022-08-19T10:20:00;4.4;;;2.1;;
23252;SDS011;11795;47.054;15.408;2022-08-19T10:22:02;4.4;;;2.1;;
23252;SDS011;11795;47.054;15.408;2022-08-19T10:24:01;3.8;;;2.2;;
23252;SDS011;11795;47.054;15.408;2022-08-19T10:26:00;3.8;;;2.2;;
23252;SDS011;11795;47.054;15.408;2022-08-19T10:28:00;3.8;;;2.2;;
23252;SDS011;11795;47.054;15.408;2022-08-19T10:30:01;4.8;;;2.2;;
23252;SDS011;11795;47.054;15.408;2022-08-19T10:32:00;4.8;;;2.2;;
23252;SDS011;11795;47.054;15.408;2022-08-19T10:34:00;3.2;;;1.7;;
23252;SDS011;11795;47.054;15.408;2022-08-19T10:36:00;3.2;;;1.7;;
23252;SDS011;11795;47.054;15.408;2022-08-19T10:38:02;3.2;;;1.7;;
23252;SDS011;11795;47.054;15.408;2022-08-19T10:40:02;2.7;;;1.9;;
23252;SDS011;11795;47.054;15.408;2022-08-19T10:42:04;2.7;;;1.9;;
23252;SDS011;11795;47.054;15.408;2022-08-19T10:44:01;2.9;;;2.0;;
23252;SDS011;11795;47.054;15.408;2022-08-19T10:46:00;2.9;;;2.0;;
23252;SDS011;11795;47.054;15.408;2022-08-19T10:48:00;2.9;;;2.0;;
23252;SDS011;11795;47.054;15.408;2022-08-19T10:50:10;3.4;;;2.3;;
23252;SDS011;11795;47.054;15.408;2022-08-19T10:52:10;3.4;;;2.3;;
23252;SDS011;11795;47.054;15.408;2022-08-19T10:54:00;4.2;;;2.1;;
23252;SDS011;11795;47.054;15.408;2022-08-19T10:56:10;4.2;;;2.1;;
23252;SDS011;11795;47.054;15.408;2022-08-19T10:58:00;4.2;;;2.1;;
23252;SDS011;11795;47.054;15.408;2022-08-19T11:00:00;4.4;;;2.0;;
23252;SDS011;11795;47.054;15.408;2022-08-19T11:02:00;4.4;;;2.0;;
23252;SDS011;11795;47.054;15.408;2022-08-19T11:04:00;4.3;;;2.3;;
23252;SDS011;11795;47.054;15.408;2022-08-19T11:06:00;4.3;;;2.3;;
23252;SDS011;11795;47.054;15.408;2022-08-19T11:08:00;4.3;;;2.3;;
23252;SDS011;11795;47.054;15.408;2022-08-19T11:10:00;5.1;;;2.4;;
23252;SDS011;11795;47.054;15.408;2022-08-19T11:12:00;5.1;;;2.4;;
23252;SDS011;11795;47.054;15.408;2022-08-19T11:14:00;6.5;;;3.1;;
23252;SDS011;11795;47.054;15.408;2022-08-19T11:16:02;6.5;;;3.1;;
23252;SDS011;11795;47.054;15.408;2022-08-19T11:18:00;6.5;;;3.1;;
23252;SDS011;11795;47.054;15.408;2022-08-19T11:20:03;6.9;;;3.1;;
23252;SDS011;11795;47.054;15.408;2022-08-19T11:22:01;6.9;;;3.1;;
23252;SDS011;11795;47.054;15.408;2022-08-19T11:24:01;7.6;;;3.0;;
23252;SDS011;11795;47.054;15.408;2022-08-19T11:26:01;7.6;;;3.0;;
23252;SDS011;11795;47.054;15.408;2022-08-19T11:28:00;7.6;;;3.0;;
23252;SDS011;11795;47.054;15.408;2022-08-19T11:30:00;6.4;;;2.6;;
23252;SDS011;11795;47.054;15.408;2022-08-19T11:32:03;6.4;;;2.6;;
23252;SDS011;11795;47.054;15.408;2022-08-19T11:34:02;5.6;;;2.3;;
23252;SDS011;11795;47.054;15.408;2022-08-19T11:36:01;5.6;;;2.3;;
23252;SDS011;11795;47.054;15.408;2022-08-19T11:38:02;5.6;;;2.3;;
23252;SDS011;11795;47.054;15.408;2022-08-19T11:40:00;3.6;;;2.1;;
23252;SDS011;11795;47.054;15.408;2022-08-19T11:42:01;3.6;;;2.1;;
23252;SDS011;11795;47.054;15.408;2022-08-19T11:44:00;4.2;;;2.1;;
23252;SDS011;11795;47.054;15.408;2022-08-19T11:46:03;4.2;;;2.1;;
23252;SDS011;11795;47.054;15.408;2022-08-19T11:48:00;4.2;;;2.1;;
23252;SDS011;11795;47.054;15.408;2022-08-19T11:50:00;4.7;;;2.1;;
23252;SDS011;11795;47.054;15.408;2022-08-19T11:52:01;4.7;;;2.1;;
23252;SDS011;11795;47.054;15.408;2022-08-19T11:54:00;4.6;;;2.2;;
23252;SDS011;11795;47.054;15.408;2022-08-19T11:56:00;4.6;;;2.2;;
23252;SDS011;11795;47.054;15.408;2022-08-19T11:58:00;4.6;;;2.2;;
23252;SDS011;11795;47.054;15.408;2022-08-19T12:00:02;6.0;;;2.2;;
23252;SDS011;11795;47.054;15.408;2022-08-19T12:02:00;6.0;;;2.2;;
23252;SDS011;11795;47.054;15.408;2022-08-19T12:04:00;5.8;;;2.3;;
23252;SDS011;11795;47.054;15.408;2022-08-19T12:06:02;5.8;;;2.3;;
23252;SDS011;11795;47.054;15.408;2022-08-19T12:08:00;5.8;;;2.3;;
23252;SDS011;11795;47.054;15.408;2022-08-19T12:10:00;5.8;;;2.4;;
23252;SDS011;11795;47.054;15.408;2022-08-19T12:12:01;5.8;;;2.4;;